Time;durP1;ratioP1;P1;durP2;ratioP2;P2;SDS_P1;SDS_P2;PMS_P1;PMS_P2;Temp;Humidity;BMP_temperature;BMP_pressure;BME280_temperature;BME280_humidity;BME280_pressure;Samples;Min_cycle;Max_cycle;Signal;HPM_P1;HPM_P2
2022/09/21 00:00:09;;;;;;;9.00;6.70;;;;;;;7.81;98.23;99145.26;2173336;81;20984;-81
2022/09/21 00:03:09;;;;;;;6.80;6.10;;;;;;;7.88;98.35;99141.98;2173342;81;20957;-81
2022/09/21 00:06:09;;;;;;;7.77;6.90;;;;;;;7.92;98.30;99138.22;2173412;81;20901;-82
2022/09/21 00:09:10;;;;;;;7.00;6.27;;;;;;;7.97;98.33;99136.62;2173609;81;20937;-83
2022/09/21 00:12:11;;;;;;;15.13;6.97;;;;;;;8.00;98.37;99135.81;2173497;81;20905;-81
2022/09/21 00:15:11;;;;;;;10.70;6.70;;;;;;;8.02;98.24;99132.84;2173535;81;20929;-82
2022/09/21 00:18:12;;;;;;;10.43;6.77;;;;;;;8.04;98.32;99132.87;2173931;81;20992;-81
2022/09/21 00:21:11;;;;;;;9.30;7.00;;;;;;;8.04;98.51;99138.95;2173727;81;20968;-81
2022/09/21 00:24:12;;;;;;;11.30;9.10;;;;;;;8.04;98.54;99140.26;2173759;81;20937;-81
2022/09/21 00:27:12;;;;;;;14.60;11.10;;;;;;;8.02;98.74;99138.45;2173687;81;20961;-81
2022/09/21 00:30:14;;;;;;;15.63;13.23;;;;;;;8.04;99.04;99148.48;2173377;81;20922;-81
2022/09/21 00:33:13;;;;;;;17.00;14.67;;;;;;;8.04;98.74;99149.36;2173539;81;20976;-81
2022/09/21 00:36:14;;;;;;;17.17;15.30;;;;;;;8.04;99.06;99147.17;2173498;81;21432;-81
2022/09/21 00:39:14;;;;;;;15.80;13.70;;;;;;;8.04;99.24;99145.88;2174084;81;20957;-79
2022/09/21 00:42:14;;;;;;;19.27;13.17;;;;;;;8.06;99.17;99138.58;2173812;81;20956;-81
2022/09/21 00:45:19;;;;;;;12.37;11.17;;;;;;;8.06;99.19;99151.58;2173826;81;21301;-81
2022/09/21 00:48:15;;;;;;;12.40;10.33;;;;;;;8.07;99.69;99149.86;2173784;81;20921;-81
2022/09/21 00:51:15;;;;;;;10.37;9.43;;;;;;;8.06;99.16;99150.28;2174096;81;20890;-81
2022/09/21 00:54:16;;;;;;;13.00;8.97;;;;;;;8.05;99.48;99155.02;2173917;81;20965;-81
2022/09/21 00:57:16;;;;;;;10.63;9.13;;;;;;;8.04;99.66;99158.45;2173605;81;21004;-82
2022/09/21 01:00:17;;;;;;;10.83;9.43;;;;;;;8.03;99.40;99154.52;2173619;81;20997;-81
2022/09/21 01:03:17;;;;;;;11.23;8.50;;;;;;;8.03;99.54;99158.00;2173568;81;20945;-84
2022/09/21 01:06:17;;;;;;;13.53;9.50;;;;;;;8.02;99.79;99163.16;2173981;81;20964;-84
2022/09/21 01:09:18;;;;;;;12.80;9.20;;;;;;;7.98;99.65;99160.47;2173966;81;21332;-84
2022/09/21 01:12:19;;;;;;;14.10;9.40;;;;;;;7.94;99.67;99156.03;2173968;81;20893;-84
2022/09/21 01:15:19;;;;;;;16.33;10.17;;;;;;;7.91;99.93;99164.16;2173590;81;20953;-85
2022/09/21 01:18:19;;;;;;;16.37;9.63;;;;;;;7.86;100.00;99166.64;2173951;81;20957;-85
2022/09/21 01:21:20;;;;;;;15.03;11.93;;;;;;;7.82;99.97;99162.61;2174142;81;20937;-85
2022/09/21 01:24:20;;;;;;;16.37;13.83;;;;;;;7.79;99.96;99165.97;2174049;81;20941;-83
2022/09/21 01:27:20;;;;;;;20.00;16.70;;;;;;;7.80;100.00;99163.87;2173938;81;20968;-82
2022/09/21 01:30:21;;;;;;;22.30;18.40;;;;;;;7.79;100.00;99167.69;2173638;81;21353;-84
2022/09/21 01:33:22;;;;;;;21.87;17.93;;;;;;;7.77;100.00;99166.77;2173740;81;20937;-85
2022/09/21 01:36:23;;;;;;;18.37;15.67;;;;;;;7.76;100.00;99166.31;2174002;81;20968;-84
2022/09/21 01:39:22;;;;;;;15.47;13.23;;;;;;;7.74;100.00;99168.86;2173831;81;20964;-82
2022/09/21 01:42:22;;;;;;;15.87;12.30;;;;;;;7.72;100.00;99167.06;2173755;81;21012;-81
2022/09/21 01:45:23;;;;;;;13.70;11.73;;;;;;;7.79;100.00;99163.80;2173908;81;20945;-82
2022/09/21 01:48:23;;;;;;;15.27;10.50;;;;;;;7.75;100.00;99163.25;2173945;81;20949;-82
2022/09/21 01:51:24;;;;;;;13.00;9.70;;;;;;;7.67;100.00;99156.53;2173892;81;21329;-82
2022/09/21 01:54:24;;;;;;;14.00;10.43;;;;;;;7.61;100.00;99163.73;2174109;81;20937;-83
2022/09/21 01:57:24;;;;;;;13.43;10.47;;;;;;;7.58;100.00;99170.56;2173200;81;20992;-82
2022/09/21 02:00:25;;;;;;;14.43;9.40;;;;;;;7.54;100.00;99172.20;2173881;81;20945;-81
2022/09/21 02:03:25;;;;;;;15.77;9.53;;;;;;;7.54;100.00;99176.51;2174103;81;20969;-82
2022/09/21 02:06:26;;;;;;;13.53;10.10;;;;;;;7.50;100.00;99182.03;2173826;81;20941;-82
2022/09/21 02:09:26;;;;;;;14.70;10.20;;;;;;;7.46;100.00;99186.67;2173872;81;20957;-82
2022/09/21 02:12:26;;;;;;;19.23;10.43;;;;;;;7.46;100.00;99187.97;2173896;81;21000;-82
2022/09/21 02:15:27;;;;;;;17.07;12.53;;;;;;;7.45;100.00;99190.11;2173615;82;21012;-81
2022/09/21 02:18:27;;;;;;;21.77;17.73;;;;;;;7.41;100.00;99188.25;2173597;81;21016;-82
2022/09/21 02:21:28;;;;;;;20.27;18.07;;;;;;;7.32;100.00;99190.58;2173531;81;20957;-82
2022/09/21 02:24:28;;;;;;;22.33;15.67;;;;;;;7.28;100.00;99192.62;2173194;81;20901;-81
2022/09/21 02:27:28;;;;;;;19.77;14.43;;;;;;;7.22;100.00;99196.33;2173687;81;20956;-81
2022/09/21 02:30:29;;;;;;;14.90;12.77;;;;;;;7.19;100.00;99198.83;2173571;81;21293;-81
2022/09/21 02:33:31;;;;;;;17.70;14.07;;;;;;;7.18;100.00;99195.77;2173458;81;20968;-80
2022/09/21 02:36:30;;;;;;;29.40;20.00;;;;;;;7.19;100.00;99198.83;2173411;81;21047;-79
2022/09/21 02:39:30;;;;;;;22.13;19.40;;;;;;;7.22;100.00;99204.12;2173325;81;20960;-81
2022/09/21 02:42:30;;;;;;;27.63;18.90;;;;;;;7.27;100.00;99198.23;2172701;81;20984;-81
2022/09/21 02:45:32;;;;;;;29.47;21.17;;;;;;;7.30;100.00;99202.64;2172601;81;20965;-82
2022/09/21 02:48:31;;;;;;;26.60;21.80;;;;;;;7.38;100.00;99212.84;2173476;81;20949;-83
2022/09/21 02:51:32;;;;;;;27.40;24.57;;;;;;;7.42;100.00;99208.61;2173489;81;20937;-82
2022/09/21 02:54:32;;;;;;;28.27;23.70;;;;;;;7.44;100.00;99214.73;2173552;81;20929;-82
2022/09/21 02:57:32;;;;;;;26.80;20.73;;;;;;;7.48;100.00;99213.58;2187616;81;21012;-80
2022/09/21 03:00:33;;;;;;;24.17;17.47;;;;;;;7.50;100.00;99211.91;2190127;81;21304;-80
2022/09/21 03:03:33;;;;;;;24.00;16.33;;;;;;;7.52;100.00;99212.83;2189966;81;20917;-82
2022/09/21 03:06:34;;;;;;;22.67;15.70;;;;;;;7.54;100.00;99212.88;2190268;81;20980;-80
2022/09/21 03:09:34;;;;;;;19.53;16.33;;;;;;;7.57;100.00;99223.36;2190791;81;20965;-82
2022/09/21 03:12:34;;;;;;;26.23;16.37;;;;;;;7.59;100.00;99213.89;2190215;81;21371;-81
2022/09/21 03:15:35;;;;;;;23.77;16.83;;;;;;;7.60;100.00;99213.94;2190366;81;21344;-80
2022/09/21 03:18:35;;;;;;;28.60;20.50;;;;;;;7.66;100.00;99215.83;2190195;81;20983;-80
2022/09/21 03:21:36;;;;;;;31.10;23.03;;;;;;;7.68;100.00;99215.05;2190014;81;20957;-81
2022/09/21 03:24:45;;;;;;;31.23;24.57;;;;;;;7.70;100.00;99224.59;2189912;81;21257;-81
2022/09/21 03:27:45;;;;;;;29.77;21.70;;;;;;;7.72;100.00;99219.03;2188426;81;20928;-83
2022/09/21 03:30:46;;;;;;;27.60;21.37;;;;;;;7.71;100.00;99225.94;2189840;81;20945;-84
2022/09/21 03:33:46;;;;;;;35.97;23.07;;;;;;;7.73;100.00;99223.39;2190280;81;20915;-82
2022/09/21 03:36:47;;;;;;;27.77;21.13;;;;;;;7.73;100.00;99225.56;2189588;81;21261;-84
2022/09/21 03:39:47;;;;;;;26.90;21.07;;;;;;;7.75;100.00;99222.59;2189046;81;21011;-83
2022/09/21 03:42:47;;;;;;;26.13;20.57;;;;;;;7.79;100.00;99227.46;2188569;81;20964;-83
2022/09/21 03:45:48;;;;;;;28.37;22.27;;;;;;;7.79;100.00;99223.14;2188311;81;20964;-82
2022/09/21 03:48:48;;;;;;;30.80;23.97;;;;;;;7.80;100.00;99235.72;2189745;81;21529;-83
2022/09/21 03:51:49;;;;;;;30.87;22.00;;;;;;;7.79;100.00;99227.46;2189947;81;20959;-84
2022/09/21 03:54:49;;;;;;;32.60;22.40;;;;;;;7.81;100.00;99224.52;2187738;81;20947;-82
2022/09/21 03:57:49;;;;;;;35.77;23.00;;;;;;;7.82;100.00;99223.27;2189234;81;21035;-85
2022/09/21 04:00:50;;;;;;;34.50;26.73;;;;;;;7.83;100.00;99231.95;2188295;81;20991;-83
2022/09/21 04:03:50;;;;;;;39.80;27.53;;;;;;;7.81;100.00;99226.70;2188136;81;21003;-84
2022/09/21 04:06:51;;;;;;;37.20;26.53;;;;;;;7.81;100.00;99239.70;2188485;81;21003;-83
2022/09/21 04:09:52;;;;;;;42.57;26.73;;;;;;;7.81;100.00;99237.52;2188720;81;21383;-83
2022/09/21 04:12:52;;;;;;;49.17;26.13;;;;;;;7.83;100.00;99238.45;2187875;81;20964;-82
2022/09/21 04:15:52;;;;;;;56.97;25.03;;;;;;;7.83;100.00;99238.45;2187838;81;20972;-82
2022/09/21 04:18:52;;;;;;;44.80;23.30;;;;;;;7.83;100.00;99235.42;2187452;81;21034;-82
2022/09/21 04:21:54;;;;;;;52.07;26.70;;;;;;;7.82;100.00;99237.56;2186463;81;20995;-84
2022/09/21 04:24:53;;;;;;;44.97;26.50;;;;;;;7.83;100.00;99243.64;2186522;81;21001;-82
2022/09/21 04:27:54;;;;;;;38.23;27.10;;;;;;;7.83;100.00;99240.63;2186131;81;20956;-82
2022/09/21 04:30:54;;;;;;;37.47;24.97;;;;;;;7.89;100.00;99243.81;2186605;81;20956;-82
2022/09/21 04:33:54;;;;;;;43.80;27.40;;;;;;;7.91;100.00;99239.13;2186317;81;21560;-81
2022/09/21 04:36:55;;;;;;;52.50;26.60;;;;;;;7.92;100.00;99241.30;2186154;81;21023;-83
2022/09/21 04:39:55;;;;;;;32.70;24.40;;;;;;;7.94;100.00;99248.31;2186772;81;20957;-81
2022/09/21 04:42:56;;;;;;;38.50;26.17;;;;;;;7.96;100.00;99252.25;2186874;81;21367;-82
2022/09/21 04:45:56;;;;;;;41.10;27.20;;;;;;;7.99;100.00;99254.94;2186833;81;20956;-83
2022/09/21 04:48:56;;;;;;;38.37;27.20;;;;;;;8.03;100.00;99259.39;2186877;81;21011;-83
2022/09/21 04:51:57;;;;;;;41.53;26.17;;;;;;;8.04;100.00;99255.95;2186300;81;22136;-83
2022/09/21 04:54:58;;;;;;;39.63;25.37;;;;;;;8.08;100.00;99252.59;2186423;81;20964;-81
2022/09/21 04:57:58;;;;;;;41.27;26.13;;;;;;;8.11;100.00;99250.50;2186182;81;21285;-80
2022/09/21 05:00:58;;;;;;;42.30;26.93;;;;;;;8.16;100.00;99252.39;2184486;81;20995;-80
2022/09/21 05:04:01;;;;;;;37.33;24.73;;;;;;;8.21;100.00;99251.22;2186118;81;21968;-80
2022/09/21 05:06:59;;;;;;;35.87;23.63;;;;;;;8.21;100.00;99252.09;2185428;81;21041;-80
2022/09/21 05:10:02;;;;;;;38.67;26.07;;;;;;;8.25;100.00;99259.15;2186628;81;20991;-79
2022/09/21 05:13:02;;;;;;;35.33;25.23;;;;;;;8.27;100.00;99260.48;2186190;81;21416;-79
2022/09/21 05:16:03;;;;;;;42.03;26.60;;;;;;;8.29;100.00;99267.50;2185844;81;21062;-80
2022/09/21 05:19:03;;;;;;;40.30;25.40;;;;;;;8.32;100.00;99265.40;2186187;81;20928;-80
2022/09/21 05:22:04;;;;;;;34.70;23.87;;;;;;;8.35;100.00;99264.63;2183764;81;21426;-80
2022/09/21 05:25:04;;;;;;;37.17;25.10;;;;;;;8.38;100.00;99271.22;2186140;81;21027;-79
2022/09/21 05:28:04;;;;;;;34.90;24.80;;;;;;;8.41;100.00;99272.61;2186546;81;20972;-81
2022/09/21 05:31:05;;;;;;;37.37;26.27;;;;;;;8.46;100.00;99269.70;2186883;81;20929;-80
2022/09/21 05:34:06;;;;;;;37.30;25.37;;;;;;;8.50;100.00;99271.55;2186314;81;21007;-79
2022/09/21 05:37:06;;;;;;;42.60;26.93;;;;;;;8.52;100.00;99277.67;2185522;81;21039;-81
2022/09/21 05:40:06;;;;;;;37.43;24.97;;;;;;;8.52;100.00;99276.37;2186724;81;20960;-79
2022/09/21 05:43:06;;;;;;;40.83;25.60;;;;;;;8.54;100.00;99278.59;2185414;81;21023;-79
2022/09/21 05:46:07;;;;;;;37.47;26.83;;;;;;;8.55;100.00;99281.66;2184295;81;20984;-78
2022/09/21 05:49:07;;;;;;;36.03;26.10;;;;;;;8.59;100.00;99288.70;2183626;81;20986;-78
2022/09/21 05:52:08;;;;;;;38.30;25.67;;;;;;;8.60;100.00;99284.84;2182952;81;20936;-80
2022/09/21 05:55:08;;;;;;;39.20;26.73;;;;;;;8.67;100.00;99289.83;2186414;81;21415;-79
2022/09/21 05:58:09;;;;;;;35.63;24.90;;;;;;;8.73;100.00;99291.28;2184262;81;21616;-79
2022/09/21 06:01:09;;;;;;;39.07;26.40;;;;;;;8.73;100.00;99296.91;2184078;81;20984;-81
2022/09/21 06:04:10;;;;;;;44.37;25.63;;;;;;;8.71;100.00;99300.78;2186204;81;21024;-79
2022/09/21 06:07:10;;;;;;;37.87;26.33;;;;;;;8.67;100.00;99300.23;2186803;81;20995;-81
2022/09/21 06:10:10;;;;;;;40.37;25.20;;;;;;;8.64;100.00;99300.13;2186764;81;21367;-79
2022/09/21 06:13:11;;;;;;;39.97;26.43;;;;;;;8.66;100.00;99307.55;2186637;81;20977;-79
2022/09/21 06:16:11;;;;;;;43.87;27.37;;;;;;;8.70;100.00;99305.52;2186935;81;20964;-80
2022/09/21 06:19:11;;;;;;;39.50;25.93;;;;;;;8.71;100.00;99302.08;2186243;81;20917;-80
2022/09/21 06:22:13;;;;;;;44.20;24.80;;;;;;;8.76;100.00;99300.90;2185928;81;21115;-79
2022/09/21 06:25:13;;;;;;;50.23;27.03;;;;;;;8.79;100.00;99303.16;2186793;81;21026;-80
2022/09/21 06:28:13;;;;;;;37.43;25.33;;;;;;;8.84;100.00;99306.77;2184287;81;21470;-79
2022/09/21 06:31:14;;;;;;;44.60;25.77;;;;;;;8.89;100.00;99305.16;2184476;81;20951;-80
2022/09/21 06:34:14;;;;;;;40.17;26.90;;;;;;;8.92;100.00;99303.05;2184092;81;21113;-79
2022/09/21 06:37:15;;;;;;;42.80;26.50;;;;;;;8.97;100.00;99308.37;2184883;81;20991;-79
2022/09/21 06:40:15;;;;;;;41.23;26.07;;;;;;;8.99;100.00;99308.88;2184876;81;21394;-79
2022/09/21 06:43:15;;;;;;;39.20;23.23;;;;;;;9.04;100.00;99309.88;2184908;81;20979;-78
2022/09/21 06:46:16;;;;;;;38.40;22.87;;;;;;;9.07;100.00;99307.77;2185488;81;21007;-79
2022/09/21 06:49:16;;;;;;;35.90;21.27;;;;;;;9.08;100.00;99314.32;2184844;81;21006;-79
2022/09/21 06:52:17;;;;;;;33.07;21.30;;;;;;;9.22;100.00;99316.84;2185073;81;20968;-79
2022/09/21 06:55:17;;;;;;;32.07;22.00;;;;;;;9.34;100.00;99320.17;2185108;81;21937;-80
2022/09/21 06:58:18;;;;;;;50.97;23.30;;;;;;;9.36;100.00;99320.20;2185921;81;21066;-80
2022/09/21 07:01:18;;;;;;;46.53;23.57;;;;;;;9.47;100.00;99320.92;2187258;81;20995;-80
2022/09/21 07:04:20;;;;;;;27.90;19.90;;;;;;;9.50;100.00;99322.30;2185827;81;21004;-79
2022/09/21 07:07:19;;;;;;;37.23;21.37;;;;;;;9.45;100.00;99320.00;2185574;81;20991;-80
2022/09/21 07:10:19;;;;;;;28.13;19.67;;;;;;;9.42;100.00;99329.47;2185035;81;21070;-79
2022/09/21 07:13:19;;;;;;;31.40;20.33;;;;;;;9.41;100.00;99336.83;2183951;81;20960;-79
2022/09/21 07:16:20;;;;;;;32.30;20.63;;;;;;;9.47;100.00;99330.46;2186360;81;21051;-81
2022/09/21 07:19:21;;;;;;;32.90;20.40;;;;;;;9.46;100.00;99340.42;2186228;81;21670;-81
2022/09/21 07:22:21;;;;;;;28.50;21.20;;;;;;;9.47;100.00;99333.95;2186298;81;20991;-80
2022/09/21 07:25:21;;;;;;;28.87;19.87;;;;;;;9.48;100.00;99337.02;2186125;81;21004;-79
2022/09/21 07:28:22;;;;;;;26.17;19.80;;;;;;;9.46;100.00;99340.00;2186053;81;20957;-80
2022/09/21 07:31:22;;;;;;;23.97;19.07;;;;;;;9.52;100.00;99341.45;2184116;81;21011;-79
2022/09/21 07:34:22;;;;;;;22.37;18.43;;;;;;;9.55;100.00;99345.47;2184425;81;21079;-78
2022/09/21 07:37:23;;;;;;;22.33;18.47;;;;;;;9.52;100.00;99357.52;2183759;81;21039;-79
2022/09/21 07:40:23;;;;;;;26.47;20.93;;;;;;;9.59;100.00;99356.84;2183575;81;21407;-79
2022/09/21 07:43:24;;;;;;;33.07;21.03;;;;;;;9.63;100.00;99354.77;2183805;81;20936;-79
2022/09/21 07:46:24;;;;;;;23.13;19.40;;;;;;;9.58;100.00;99352.48;2183622;81;21313;-78
2022/09/21 07:49:24;;;;;;;23.77;18.17;;;;;;;9.56;100.00;99353.75;2184052;81;21007;-79
2022/09/21 07:52:25;;;;;;;23.77;18.47;;;;;;;9.57;100.00;99349.41;2185100;81;20937;-79
2022/09/21 07:55:25;;;;;;;26.87;18.43;;;;;;;9.62;100.00;99358.22;2184995;81;21031;-80
2022/09/21 08:01:44;;;;;;;24.33;17.97;;;;;;;9.72;100.00;99357.59;2184172;81;21037;-79
2022/09/21 08:04:45;;;;;;;20.00;17.37;;;;;;;9.76;100.00;99359.84;2184578;81;21027;-78
2022/09/21 08:07:45;;;;;;;21.17;16.33;;;;;;;9.85;100.00;99361.36;2184095;81;20960;-78
2022/09/21 08:10:46;;;;;;;19.50;15.13;;;;;;;9.89;100.00;99357.55;2184782;81;21905;-79
2022/09/21 08:13:47;;;;;;;18.63;16.50;;;;;;;9.86;100.00;99356.19;2185113;81;21220;-79
2022/09/21 08:16:47;;;;;;;20.00;16.77;;;;;;;9.88;100.00;99361.01;2184832;81;20964;-78
2022/09/21 08:19:47;;;;;;;20.83;16.93;;;;;;;9.97;100.00;99359.03;2184033;81;21000;-78
2022/09/21 08:22:47;;;;;;;20.17;16.10;;;;;;;10.09;100.00;99364.94;2183339;81;21258;-79
2022/09/21 08:25:48;;;;;;;19.53;16.13;;;;;;;10.15;100.00;99355.52;2185293;81;20984;-78
2022/09/21 08:28:48;;;;;;;23.53;18.23;;;;;;;10.17;100.00;99365.56;2181037;81;21305;-79
2022/09/21 08:31:49;;;;;;;26.77;19.73;;;;;;;10.24;99.83;99370.95;2180589;81;20987;-78
2022/09/21 08:34:49;;;;;;;22.47;17.10;;;;;;;10.23;99.67;99367.45;2181296;81;21430;-79
2022/09/21 08:37:50;;;;;;;19.27;16.57;;;;;;;10.26;99.42;99373.16;2183183;81;21293;-79
2022/09/21 08:40:50;;;;;;;20.23;15.70;;;;;;;10.25;99.43;99372.28;2185846;81;21015;-80
2022/09/21 08:43:50;;;;;;;18.67;16.60;;;;;;;10.31;99.27;99374.14;2186254;81;20992;-79
2022/09/21 08:46:51;;;;;;;19.77;17.30;;;;;;;10.35;99.12;99377.28;2186292;81;21367;-78
2022/09/21 08:49:51;;;;;;;22.10;16.60;;;;;;;10.34;98.91;99380.73;2184338;81;21423;-79
2022/09/21 08:52:51;;;;;;;29.20;16.67;;;;;;;10.38;98.87;99377.34;2184195;81;20992;-79
2022/09/21 08:55:52;;;;;;;20.97;15.73;;;;;;;10.41;98.75;99376.13;2183588;81;21234;-79
2022/09/21 08:58:52;;;;;;;18.43;14.47;;;;;;;10.60;98.22;99374.35;2183217;81;21011;-78
2022/09/21 09:01:53;;;;;;;18.63;13.50;;;;;;;10.96;96.71;99382.02;2184278;81;20979;-78
2022/09/21 09:04:53;;;;;;;15.08;12.93;;;;;;;11.27;95.41;99376.95;2183951;81;22174;-79
2022/09/21 09:07:54;;;;;;;17.77;12.53;;;;;;;11.48;93.69;99377.31;2184683;81;20979;-80
2022/09/21 09:10:54;;;;;;;13.85;12.18;;;;;;;11.59;92.92;99373.56;2185022;81;20964;-80
2022/09/21 09:13:54;;;;;;;16.60;11.22;;;;;;;11.77;93.49;99372.98;2186767;81;20999;-81
2022/09/21 09:16:55;;;;;;;12.95;10.85;;;;;;;11.93;92.57;99370.20;2186932;81;21344;-80
2022/09/21 09:19:55;;;;;;;15.48;10.60;;;;;;;11.95;90.93;99374.59;2185293;81;20948;-80
2022/09/21 09:22:56;;;;;;;14.63;11.43;;;;;;;11.94;91.78;99370.22;2186411;81;20960;-78
2022/09/21 09:25:56;;;;;;;13.60;11.10;;;;;;;11.97;91.06;99366.34;2184246;81;20917;-79
2022/09/21 09:28:56;;;;;;;13.75;12.13;;;;;;;11.84;91.23;99373.98;2186032;81;20991;-78
2022/09/21 09:31:57;;;;;;;13.28;11.85;;;;;;;11.70;91.94;99372.00;2184378;81;21023;-79
2022/09/21 09:34:57;;;;;;;14.73;11.28;;;;;;;11.74;92.01;99371.20;2183142;81;21095;-79
2022/09/21 09:37:58;;;;;;;14.78;13.00;;;;;;;11.79;91.78;99368.69;2184780;81;21015;-78
2022/09/21 09:40:58;;;;;;;12.97;11.17;;;;;;;11.84;91.58;99367.02;2183990;81;20986;-78
2022/09/21 09:43:58;;;;;;;12.33;10.35;;;;;;;11.95;90.96;99368.05;2184248;81;20987;-78
2022/09/21 09:46:59;;;;;;;16.77;13.30;;;;;;;12.00;90.92;99366.81;2183084;81;20991;-79
2022/09/21 09:49:59;;;;;;;11.28;9.65;;;;;;;12.12;90.71;99365.67;2183694;81;21063;-78
2022/09/21 09:53:00;;;;;;;10.23;9.18;;;;;;;12.39;90.18;99365.20;2182793;81;21390;-78
2022/09/21 09:56:00;;;;;;;9.30;8.48;;;;;;;12.82;88.14;99364.39;2183325;81;21019;-78
2022/09/21 09:59:05;;;;;;;10.03;7.62;;;;;;;12.86;86.38;99367.50;2183616;81;20999;-78
2022/09/21 10:02:01;;;;;;;8.03;6.95;;;;;;;13.16;87.12;99354.74;2183324;81;20936;-78
2022/09/21 10:05:12;;;;;;;9.00;7.70;;;;;;;13.49;86.83;99346.77;2184757;81;20995;-78
2022/09/21 10:08:08;;;;;;;10.65;7.67;;;;;;;13.66;85.84;99345.14;2184662;81;21011;-78
2022/09/21 10:11:08;;;;;;;7.85;7.08;;;;;;;13.60;86.28;99347.72;2182630;81;21603;-77
2022/09/21 10:14:08;;;;;;;7.70;7.00;;;;;;;13.33;86.30;99338.77;2181793;81;21026;-80
2022/09/21 10:17:09;;;;;;;12.05;10.75;;;;;;;13.11;86.40;99339.84;2185652;81;21018;-79
2022/09/21 10:20:09;;;;;;;10.55;9.23;;;;;;;12.99;87.16;99330.08;2187306;81;20968;-80
2022/09/21 10:23:10;;;;;;;21.52;13.05;;;;;;;12.94;87.27;99340.95;2186414;81;21441;-79
2022/09/21 10:26:10;;;;;;;8.73;6.25;;;;;;;13.00;87.71;99341.92;2186782;81;20971;-79
2022/09/21 10:29:11;;;;;;;6.53;4.78;;;;;;;13.16;86.11;99338.14;2186307;81;21031;-78
2022/09/21 10:32:11;;;;;;;11.30;5.15;;;;;;;13.39;86.52;99333.58;2186564;81;20971;-78
2022/09/21 10:35:11;;;;;;;5.60;4.22;;;;;;;13.65;85.50;99328.96;2184881;81;21451;-79
2022/09/21 10:38:12;;;;;;;5.58;3.77;;;;;;;14.08;79.90;99330.58;2184710;81;21030;-79
2022/09/21 10:41:12;;;;;;;4.85;4.25;;;;;;;14.08;79.90;99330.58;2185119;81;21024;-79
2022/09/21 10:44:12;;;;;;;3.70;3.40;;;;;;;14.35;79.29;99322.40;2185383;81;21064;-79
2022/09/21 10:47:13;;;;;;;8.58;4.47;;;;;;;14.22;77.21;99321.02;2186072;81;21090;-78
2022/09/21 10:50:13;;;;;;;12.80;4.95;;;;;;;13.88;79.28;99326.09;2186644;81;21407;-81
2022/09/21 10:53:14;;;;;;;7.90;4.58;;;;;;;13.56;82.00;99329.77;2187683;81;20964;-79
2022/09/21 10:56:20;;;;;;;9.53;4.95;;;;;;;13.33;83.59;99338.77;2186928;81;21007;-79
2022/09/21 10:59:20;;;;;;;6.40;5.17;;;;;;;13.24;84.25;99338.69;2185883;81;21008;-80
2022/09/21 11:02:21;;;;;;;4.75;3.98;;;;;;;13.32;85.08;99333.08;2186838;81;20956;-79
2022/09/21 11:05:21;;;;;;;7.25;4.35;;;;;;;13.35;83.42;99333.53;2186612;81;21394;-80
2022/09/21 11:08:22;;;;;;;5.05;3.52;;;;;;;13.38;85.50;99330.50;2186824;81;20924;-80
2022/09/21 11:11:22;;;;;;;4.72;3.25;;;;;;;13.37;83.44;99330.49;2186846;81;21247;-81
2022/09/21 11:14:22;;;;;;;3.60;2.90;;;;;;;13.29;84.57;99329.12;2186614;81;20960;-79
2022/09/21 11:17:23;;;;;;;4.03;2.87;;;;;;;13.33;83.20;99321.72;2186988;81;20987;-77
2022/09/21 11:20:23;;;;;;;5.15;3.60;;;;;;;13.42;83.37;99318.30;2185522;81;21869;-83
2022/09/21 11:23:24;;;;;;;4.70;3.40;;;;;;;13.45;84.23;99312.20;2186037;81;20967;-82
2022/09/21 11:26:24;;;;;;;5.37;3.87;;;;;;;13.49;85.09;99318.79;2186547;81;20987;-80
2022/09/21 11:29:25;;;;;;;5.78;4.92;;;;;;;13.52;85.25;99314.87;2186026;81;21047;-81
2022/09/21 11:32:25;;;;;;;6.65;4.78;;;;;;;13.57;85.60;99317.53;2186321;81;20968;-81
2022/09/21 11:35:25;;;;;;;11.18;4.97;;;;;;;13.69;84.70;99316.31;2186029;81;21525;-81
2022/09/21 11:38:26;;;;;;;6.15;4.05;;;;;;;13.83;84.20;99301.53;2186578;81;21007;-80
2022/09/21 11:41:26;;;;;;;6.28;4.25;;;;;;;13.99;83.29;99302.53;2186303;81;21249;-81
2022/09/21 11:44:27;;;;;;;5.20;3.35;;;;;;;14.18;83.94;99309.63;2186634;81;21366;-80
2022/09/21 11:47:27;;;;;;;4.60;3.40;;;;;;;14.39;81.62;99306.66;2186572;81;20959;-80
2022/09/21 11:50:28;;;;;;;4.60;2.90;;;;;;;14.44;81.18;99304.52;2186665;81;20917;-79
2022/09/21 11:53:28;;;;;;;5.45;3.50;;;;;;;14.53;80.96;99303.23;2186748;81;21012;-80
2022/09/21 11:56:30;;;;;;;3.05;2.17;;;;;;;14.62;78.96;99303.27;2186331;81;21007;-79
2022/09/21 11:59:29;;;;;;;2.33;1.32;;;;;;;14.58;76.43;99298.88;2186110;81;21018;-79
2022/09/21 12:02:30;;;;;;;3.98;1.75;;;;;;;14.64;75.27;99303.27;2186550;81;20964;-79
2022/09/21 12:05:30;;;;;;;3.52;1.60;;;;;;;14.73;74.14;99307.67;2185763;81;21023;-79
2022/09/21 12:08:30;;;;;;;1.72;1.30;;;;;;;14.79;74.17;99303.34;2185145;81;21000;-79
2022/09/21 12:11:31;;;;;;;5.30;1.80;;;;;;;14.79;71.93;99302.46;2185060;81;20940;-79
2022/09/21 12:14:32;;;;;;;4.12;1.90;;;;;;;14.82;70.81;99306.41;2185932;81;20980;-80
2022/09/21 12:17:31;;;;;;;3.92;2.00;;;;;;;14.83;72.13;99296.34;2185704;81;20964;-80
2022/09/21 12:20:32;;;;;;;2.75;1.95;;;;;;;15.02;72.15;99298.13;2185730;81;20941;-83
2022/09/21 12:23:32;;;;;;;4.45;1.80;;;;;;;15.09;68.83;99306.45;2185565;81;21722;-81
2022/09/21 12:26:33;;;;;;;4.33;2.10;;;;;;;15.58;69.11;99294.64;2186244;81;21023;-81
2022/09/21 12:29:33;;;;;;;3.83;1.75;;;;;;;15.46;67.92;99294.19;2186861;81;20948;-84
2022/09/21 12:32:33;;;;;;;3.15;1.75;;;;;;;15.51;65.36;99294.18;2186795;81;20980;-83
2022/09/21 12:35:34;;;;;;;2.17;1.77;;;;;;;15.33;68.18;99294.19;2185413;81;21047;-83
2022/09/21 12:38:35;;;;;;;7.10;2.30;;;;;;;15.25;68.33;99291.13;2186521;81;20956;-81
2022/09/21 12:41:35;;;;;;;5.67;2.30;;;;;;;15.25;67.30;99297.70;2187646;81;20960;-83
2022/09/21 12:44:50;;;;;;;1.12;1.02;;;;;;;15.16;68.81;99309.97;2187596;81;20963;-80
2022/09/21 12:47:36;;;;;;;3.70;0.88;;;;;;;14.68;63.32;99337.00;2186309;81;20975;-81
2022/09/21 12:50:36;;;;;;;2.00;0.80;;;;;;;14.16;63.28;99331.49;2186767;81;20960;-80
2022/09/21 12:53:37;;;;;;;1.67;0.72;;;;;;;13.99;65.66;99344.52;2187103;81;20979;-81
2022/09/21 12:56:37;;;;;;;3.27;0.78;;;;;;;13.64;66.86;99341.63;2187118;81;21059;-78
2022/09/21 12:59:37;;;;;;;1.50;0.75;;;;;;;13.28;67.26;99367.12;2186827;81;21036;-79
2022/09/21 13:02:37;;;;;;;1.05;0.95;;;;;;;13.03;69.49;99355.05;2185663;81;20992;-82
2022/09/21 13:05:38;;;;;;;1.02;0.80;;;;;;;12.96;72.30;99357.12;2187481;81;21054;-82
2022/09/21 13:08:41;;;;;;;0.60;0.60;;;;;;;12.95;72.80;99362.36;2186456;81;20963;-81
2022/09/21 13:11:44;;;;;;;3.10;1.70;;;;;;;12.70;75.20;99355.54;2162299;81;21024;-81
2022/09/21 13:14:44;;;;;;;3.12;1.30;;;;;;;12.48;75.87;99356.14;2186310;81;21017;-83
2022/09/21 13:17:44;;;;;;;3.47;1.40;;;;;;;12.33;78.02;99356.84;2186967;81;22116;-82
2022/09/21 13:20:45;;;;;;;0.98;0.75;;;;;;;12.26;79.45;99354.12;2186091;81;20968;-83
2022/09/21 13:23:45;;;;;;;1.40;1.10;;;;;;;12.20;79.78;99349.69;2186097;81;21031;-82
2022/09/21 13:26:46;;;;;;;2.27;1.15;;;;;;;12.15;80.83;99341.31;2186339;81;21359;-83
2022/09/21 13:29:46;;;;;;;1.35;0.93;;;;;;;12.13;81.75;99340.84;2185985;81;20936;-82
2022/09/21 13:32:46;;;;;;;8.05;1.00;;;;;;;12.30;81.41;99339.78;2186024;81;20976;-84
2022/09/21 13:35:47;;;;;;;2.10;1.00;;;;;;;12.65;84.17;99332.34;2186395;81;20988;-84
2022/09/21 13:38:47;;;;;;;1.92;1.77;;;;;;;13.96;84.10;99319.57;2186195;81;21341;-80
2022/09/21 13:41:48;;;;;;;7.08;4.90;;;;;;;15.26;82.09;99315.66;2186689;81;20990;-85
2022/09/21 13:44:51;;;;;;;5.20;3.98;;;;;;;15.96;74.94;99313.47;2187452;81;20995;-85
2022/09/21 13:47:51;;;;;;;6.22;2.70;;;;;;;15.92;73.51;99313.48;2187390;81;20970;-85
2022/09/21 13:50:52;;;;;;;3.30;2.27;;;;;;;16.17;74.02;99316.05;2187229;81;21031;-86
2022/09/21 13:53:52;;;;;;;1.42;1.32;;;;;;;16.36;74.25;99313.78;2187446;81;20980;-84
2022/09/21 13:56:53;;;;;;;5.92;2.00;;;;;;;16.01;71.28;99309.08;2188639;81;21007;-84
2022/09/21 13:59:53;;;;;;;2.60;1.22;;;;;;;15.84;72.36;99310.43;2187429;81;21027;-84